This is the latest recevied weather packets stored in our database for station/object WMKI. If no packets are shown the sender has not sent any weather packets the latest 1 day(s).
| Time | Temp. | Humidity | Pressure | Rain* | Wind** | Luminosity | Snow |
|---|---|---|---|---|---|---|---|
| 1778051458 | 32.78° C | 62% | 1006 hPa | - | 2.24 m/s, 220° | - | - |
| 1778047845 | 32.78° C | 66% | 1007 hPa | - | 1.79 m/s, 0° | - | - |
| 1778044244 | 30.56° C | 66% | 1008 hPa | - | 1.34 m/s, 0° | - | - |
| 1778040645 | 30.56° C | 66% | 1009 hPa | - | 1.34 m/s, 0° | - | - |
| 1778037055 | 28.89° C | 79% | 1010 hPa | - | 0.45 m/s, 0° | - | - |
| 1778033443 | 26.67° C | 88% | 1010 hPa | - | 1.79 m/s, 20° | - | - |
| 1778029846 | 25.56° C | 94% | 1009 hPa | - | 1.79 m/s, 50° | - | - |
| 1778026245 | 23.89° C | 94% | 1009 hPa | - | 0.89 m/s, 0° | - | - |
| 1778022643 | 23.89° C | 10% | - | - | 1.79 m/s, 40° | - | - |
| 1778020200 | 25° C | 94% | 1008 hPa | - | 4.02 m/s, 50° | - | - |
| 1778019059 | 25° C | 94% | 1008 hPa | - | 4.02 m/s, 50° | - | - |
| 1778017210 | 25.56° C | 94% | 1008 hPa | - | 2.24 m/s, 30° | - | - |
| 1778015445 | 25.56° C | 94% | 1008 hPa | - | 2.24 m/s, 30° | - | - |
| 1778011844 | 26.67° C | 88% | 1007 hPa | - | 1.34 m/s, 0° | - | - |
| 1778008243 | 26.67° C | 88% | 1008 hPa | - | 0 m/s | - | - |
| 1778004659 | 26.67° C | 88% | 1008 hPa | - | 0 m/s | - | - |
| 1778001042 | 26.67° C | 94% | 1009 hPa | - | 0 m/s | - | - |
| 1777997445 | 26.67° C | 94% | 1009 hPa | - | 0 m/s | - | - |
| 1777995042 | 27.78° C | 88% | 1008 hPa | - | 0 m/s | - | - |
| 1777994458 | 25° C | 95% | 1010.7 hPa | - | 0 m/s | - | - |
| 1777993842 | 27.78° C | 88% | 1008 hPa | - | 0 m/s | - | - |
| 1777990245 | 27.78° C | 88% | 1008 hPa | - | 0.45 m/s, 0° | - | - |
| 1777986658 | 28.89° C | 83% | 1007 hPa | - | 0.89 m/s, 0° | - | - |
| 1777983043 | 28.89° C | 79% | 1006 hPa | - | 2.24 m/s, 200° | - | - |
| 1777979444 | 30° C | 79% | 1006 hPa | - | 1.79 m/s, 200° | - | - |
* Rain since midnight (hover to see other rain measurements)
** Current wind speed in m/s (hover to see current wind gust speed)